EBBEEBFN

Guest
Details From EBBE - Beauvechain
To EBFN - Koksijde
Flight Number -
Tags Routegen Generated
Created
Modified
Stats Distance 86 nm / 159 km
Max Altitude 200 ft / 61 m
Waypoints 9
Social Downloads 14
Likes 0
Share

Download

Looking for another format? Having issues loading an existing format? Contact us
Advertisement - Login to hide

Notes

Departing runway 21 EBBE. Arriving runway 10 EBFN.

Route

EBBE +50.69_+004.68 +50.66_+004.60 +50.65_+004.51 +50.66_+004.42 +50.69_+004.34 +50.85_+003.67 +51.06_+002.78 EBFN

ID Type Via Altitude (ft/m) Position (lat/lon) Dist (leg/tot) Name
O EBBE APT - 0 / 0 50.74716 / 4.75317 - / 0 nm
+50.69_+004.68 LATLON - 200 / 61 50.69118 / 4.68074 4 / 4 nm
+50.66_+004.60 LATLON - 200 / 61 50.66164 / 4.60217 3 / 7 nm
+50.65_+004.51 LATLON - 200 / 61 50.65091 / 4.51244 3 / 11 nm
+50.66_+004.42 LATLON - 200 / 61 50.66028 / 4.42232 3 / 14 nm
+50.69_+004.34 LATLON - 200 / 61 50.68863 / 4.34267 3 / 18 nm
+50.85_+003.67 LATLON - 200 / 61 50.85159 / 3.67120 27 / 45 nm
+51.06_+002.78 LATLON - 200 / 61 51.06366 / 2.78037 36 / 81 nm
O EBFN APT - 0 / 0 51.08649 / 2.67107 4 / 85 nm

Altitude Profile

Advertisement - Login to hide

EBBE

Details ICAO EBBE
Name Beauvechain
Region Belgium
Timezone Europe/Brussels (UTC+2.0)
Stats Elevation 340 ft / 104 m (AMSL)
Location 50.756900° 4.769260°
Runways 2
Magnetic Variation 1.731° E

METAR

EBBE 200407Z AUTO VRB02KT 7000 BKN065/// 12/11 Q1017 WHT

Decode

TAF

Not found

Departure Runways

ID Width Length Bearing (true/mag) Surface Threshold Overrun Markings Lighting
04L 148 ft / 45 m 9,156 ft / 2,791 m 38.74° / 37.01° ASPHALT 226 ft / 69 m 925 ft / 282 m APP EDGE THRESHOLD CALVERT
04R 75 ft / 23 m 7,683 ft / 2,342 m 38.77° / 37.04° ASPHALT 0 ft / 0 m 0 ft / 0 m APP EDGE THRESHOLD
22L 75 ft / 23 m 7,683 ft / 2,342 m 218.79° / 217.06° ASPHALT 0 ft / 0 m 187 ft / 57 m APP EDGE THRESHOLD
22R 148 ft / 45 m 9,156 ft / 2,791 m 218.76° / 217.03° ASPHALT 1,132 ft / 345 m 0 ft / 0 m PREC-APP EDGE THRESHOLD CALVERT

EBFN

Details ICAO EBFN
Name Koksijde Air Base
Region Belgium
Timezone Europe/Brussels (UTC+2.0)
Stats Elevation 20 ft / 6 m (AMSL)
Location 51.090300° 2.652780°
Runways 2
Magnetic Variation 1.054° E

METAR

EBFN 200355Z AUTO VRB02KT 1700 BR FEW067/// SCT100/// BKN140/// 17/16 Q1016 YLO

Decode

TAF

Not found

Destination Runways

ID Width Length Bearing (true/mag) Surface Threshold Overrun Markings Lighting
01 98 ft / 30 m 2,624 ft / 800 m 11.92° / 10.87° ASPHALT 0 ft / 0 m 0 ft / 0 m VISUAL
11 115 ft / 35 m 8,726 ft / 2,660 m 108.28° / 107.22° ASPHALT 312 ft / 95 m 0 ft / 0 m APP EDGE THRESHOLD REIL-OMNI
19 98 ft / 30 m 2,624 ft / 800 m 191.92° / 190.87° ASPHALT 0 ft / 0 m 0 ft / 0 m VISUAL
29 115 ft / 35 m 8,726 ft / 2,660 m 288.31° / 287.25° ASPHALT 312 ft / 95 m 0 ft / 0 m APP EDGE THRESHOLD ALSF-I REIL-OMNI

Popular Alternatives